sensor_id;sensor_type;location;lat;lon;timestamp;P1;durP1;ratioP1;P2;durP2;ratioP2
41233;SDS011;26968;42.686;23.352;2023-03-01T00:01:22;21.63;;;12.02;;
41233;SDS011;26968;42.686;23.352;2023-03-01T00:03:49;68.35;;;40.53;;
41233;SDS011;26968;42.686;23.352;2023-03-01T00:06:15;71.35;;;45.42;;
41233;SDS011;26968;42.686;23.352;2023-03-01T00:08:43;45.80;;;34.35;;
41233;SDS011;26968;42.686;23.352;2023-03-01T00:11:10;33.50;;;26.85;;
41233;SDS011;26968;42.686;23.352;2023-03-01T00:13:38;21.77;;;17.52;;
41233;SDS011;26968;42.686;23.352;2023-03-01T00:16:05;17.00;;;10.25;;
41233;SDS011;26968;42.686;23.352;2023-03-01T00:18:33;9.05;;;6.53;;
41233;SDS011;26968;42.686;23.352;2023-03-01T00:20:58;7.55;;;5.60;;
41233;SDS011;26968;42.686;23.352;2023-03-01T00:23:24;6.07;;;3.85;;
41233;SDS011;26968;42.686;23.352;2023-03-01T00:25:50;5.05;;;3.58;;
41233;SDS011;26968;42.686;23.352;2023-03-01T00:28:16;5.07;;;3.20;;
41233;SDS011;26968;42.686;23.352;2023-03-01T00:30:41;4.57;;;3.28;;
41233;SDS011;26968;42.686;23.352;2023-03-01T00:33:07;6.60;;;4.10;;
41233;SDS011;26968;42.686;23.352;2023-03-01T00:35:33;9.32;;;4.97;;
41233;SDS011;26968;42.686;23.352;2023-03-01T00:37:59;9.70;;;5.93;;
41233;SDS011;26968;42.686;23.352;2023-03-01T00:40:29;24.30;;;9.50;;
41233;SDS011;26968;42.686;23.352;2023-03-01T00:42:56;21.08;;;8.00;;
41233;SDS011;26968;42.686;23.352;2023-03-01T00:45:22;17.85;;;7.85;;
41233;SDS011;26968;42.686;23.352;2023-03-01T00:47:50;21.40;;;9.10;;
41233;SDS011;26968;42.686;23.352;2023-03-01T00:50:17;18.30;;;7.20;;
41233;SDS011;26968;42.686;23.352;2023-03-01T00:52:43;14.05;;;6.20;;
41233;SDS011;26968;42.686;23.352;2023-03-01T00:55:08;9.30;;;4.43;;
41233;SDS011;26968;42.686;23.352;2023-03-01T00:57:35;6.82;;;3.67;;
41233;SDS011;26968;42.686;23.352;2023-03-01T01:00:00;5.15;;;3.08;;
41233;SDS011;26968;42.686;23.352;2023-03-01T01:02:26;6.10;;;3.88;;
41233;SDS011;26968;42.686;23.352;2023-03-01T01:04:51;4.43;;;2.80;;
41233;SDS011;26968;42.686;23.352;2023-03-01T01:07:17;4.30;;;2.90;;
41233;SDS011;26968;42.686;23.352;2023-03-01T01:09:45;5.10;;;2.80;;
41233;SDS011;26968;42.686;23.352;2023-03-01T01:12:10;3.97;;;3.08;;
41233;SDS011;26968;42.686;23.352;2023-03-01T01:14:36;3.30;;;2.85;;
41233;SDS011;26968;42.686;23.352;2023-03-01T01:17:01;3.30;;;2.63;;
41233;SDS011;26968;42.686;23.352;2023-03-01T01:19:27;3.55;;;2.72;;
41233;SDS011;26968;42.686;23.352;2023-03-01T01:21:52;5.13;;;2.65;;
41233;SDS011;26968;42.686;23.352;2023-03-01T01:24:18;3.55;;;2.50;;
41233;SDS011;26968;42.686;23.352;2023-03-01T01:26:44;3.60;;;2.47;;
41233;SDS011;26968;42.686;23.352;2023-03-01T01:29:09;4.13;;;2.70;;
41233;SDS011;26968;42.686;23.352;2023-03-01T01:31:36;2.65;;;2.13;;
41233;SDS011;26968;42.686;23.352;2023-03-01T01:34:04;3.20;;;2.50;;
41233;SDS011;26968;42.686;23.352;2023-03-01T01:36:31;3.15;;;2.30;;
41233;SDS011;26968;42.686;23.352;2023-03-01T01:38:57;6.43;;;2.30;;
41233;SDS011;26968;42.686;23.352;2023-03-01T01:41:23;4.28;;;2.92;;
41233;SDS011;26968;42.686;23.352;2023-03-01T01:44:09;2.97;;;2.47;;
41233;SDS011;26968;42.686;23.352;2023-03-01T01:46:36;4.30;;;2.72;;
41233;SDS011;26968;42.686;23.352;2023-03-01T01:49:07;3.88;;;2.60;;
41233;SDS011;26968;42.686;23.352;2023-03-01T01:51:44;2.72;;;2.33;;
41233;SDS011;26968;42.686;23.352;2023-03-01T01:54:24;3.28;;;2.15;;
41233;SDS011;26968;42.686;23.352;2023-03-01T01:59:23;3.22;;;2.00;;
41233;SDS011;26968;42.686;23.352;2023-03-01T02:01:54;3.28;;;2.33;;
41233;SDS011;26968;42.686;23.352;2023-03-01T02:04:20;2.28;;;1.85;;
41233;SDS011;26968;42.686;23.352;2023-03-01T02:06:48;2.53;;;1.67;;
41233;SDS011;26968;42.686;23.352;2023-03-01T02:09:19;2.85;;;2.28;;
41233;SDS011;26968;42.686;23.352;2023-03-01T02:11:46;3.10;;;2.50;;
41233;SDS011;26968;42.686;23.352;2023-03-01T02:14:14;5.38;;;2.42;;
41233;SDS011;26968;42.686;23.352;2023-03-01T02:16:41;2.15;;;1.95;;
41233;SDS011;26968;42.686;23.352;2023-03-01T02:19:07;4.68;;;2.30;;
41233;SDS011;26968;42.686;23.352;2023-03-01T02:21:42;2.40;;;2.05;;
41233;SDS011;26968;42.686;23.352;2023-03-01T02:24:24;2.38;;;2.17;;
41233;SDS011;26968;42.686;23.352;2023-03-01T02:27:07;2.25;;;1.95;;
41233;SDS011;26968;42.686;23.352;2023-03-01T02:29:34;1.67;;;1.58;;
41233;SDS011;26968;42.686;23.352;2023-03-01T02:32:00;1.95;;;1.80;;
41233;SDS011;26968;42.686;23.352;2023-03-01T02:34:28;3.10;;;1.85;;
41233;SDS011;26968;42.686;23.352;2023-03-01T02:39:32;3.60;;;2.33;;
41233;SDS011;26968;42.686;23.352;2023-03-01T02:42:02;2.88;;;2.42;;
41233;SDS011;26968;42.686;23.352;2023-03-01T02:44:29;4.18;;;2.22;;
41233;SDS011;26968;42.686;23.352;2023-03-01T02:46:55;2.60;;;2.30;;
41233;SDS011;26968;42.686;23.352;2023-03-01T02:49:24;2.20;;;1.90;;
41233;SDS011;26968;42.686;23.352;2023-03-01T02:54:49;2.38;;;2.10;;
41233;SDS011;26968;42.686;23.352;2023-03-01T02:57:20;3.78;;;2.40;;
41233;SDS011;26968;42.686;23.352;2023-03-01T02:59:47;3.05;;;2.15;;
41233;SDS011;26968;42.686;23.352;2023-03-01T03:02:20;3.10;;;2.10;;
41233;SDS011;26968;42.686;23.352;2023-03-01T03:05:01;4.15;;;2.05;;
41233;SDS011;26968;42.686;23.352;2023-03-01T03:07:28;3.92;;;2.65;;
41233;SDS011;26968;42.686;23.352;2023-03-01T03:09:53;9.90;;;2.88;;
41233;SDS011;26968;42.686;23.352;2023-03-01T03:12:19;7.13;;;2.97;;
41233;SDS011;26968;42.686;23.352;2023-03-01T03:14:44;3.90;;;2.55;;
41233;SDS011;26968;42.686;23.352;2023-03-01T03:17:09;3.28;;;2.95;;
41233;SDS011;26968;42.686;23.352;2023-03-01T03:19:35;4.00;;;2.90;;
41233;SDS011;26968;42.686;23.352;2023-03-01T03:22:00;7.07;;;3.50;;
41233;SDS011;26968;42.686;23.352;2023-03-01T03:24:26;3.45;;;2.60;;
41233;SDS011;26968;42.686;23.352;2023-03-01T03:27:02;5.65;;;3.10;;
41233;SDS011;26968;42.686;23.352;2023-03-01T03:29:29;5.95;;;3.10;;
41233;SDS011;26968;42.686;23.352;2023-03-01T03:31:54;5.05;;;3.30;;
41233;SDS011;26968;42.686;23.352;2023-03-01T03:34:19;4.10;;;2.90;;
41233;SDS011;26968;42.686;23.352;2023-03-01T03:36:45;4.05;;;2.70;;
41233;SDS011;26968;42.686;23.352;2023-03-01T03:39:10;6.30;;;2.83;;
41233;SDS011;26968;42.686;23.352;2023-03-01T03:41:35;4.53;;;2.95;;
41233;SDS011;26968;42.686;23.352;2023-03-01T03:44:01;5.10;;;3.30;;
41233;SDS011;26968;42.686;23.352;2023-03-01T03:46:45;4.03;;;3.08;;
41233;SDS011;26968;42.686;23.352;2023-03-01T03:49:10;4.13;;;3.15;;
41233;SDS011;26968;42.686;23.352;2023-03-01T03:51:36;6.20;;;4.35;;
41233;SDS011;26968;42.686;23.352;2023-03-01T03:54:01;5.40;;;3.05;;
41233;SDS011;26968;42.686;23.352;2023-03-01T03:56:26;3.90;;;3.17;;
41233;SDS011;26968;42.686;23.352;2023-03-01T04:02:14;3.97;;;3.17;;
41233;SDS011;26968;42.686;23.352;2023-03-01T04:04:47;3.92;;;3.15;;
41233;SDS011;26968;42.686;23.352;2023-03-01T04:07:15;6.47;;;3.17;;
41233;SDS011;26968;42.686;23.352;2023-03-01T04:09:42;7.18;;;3.17;;
41233;SDS011;26968;42.686;23.352;2023-03-01T04:12:08;5.03;;;3.17;;
41233;SDS011;26968;42.686;23.352;2023-03-01T04:14:34;7.40;;;3.58;;
41233;SDS011;26968;42.686;23.352;2023-03-01T04:16:59;6.05;;;3.55;;
41233;SDS011;26968;42.686;23.352;2023-03-01T04:19:26;3.13;;;2.63;;
41233;SDS011;26968;42.686;23.352;2023-03-01T04:21:52;3.65;;;2.38;;
41233;SDS011;26968;42.686;23.352;2023-03-01T04:24:17;7.22;;;3.05;;
41233;SDS011;26968;42.686;23.352;2023-03-01T04:26:43;5.32;;;3.20;;
41233;SDS011;26968;42.686;23.352;2023-03-01T04:29:08;4.40;;;2.90;;
41233;SDS011;26968;42.686;23.352;2023-03-01T04:31:34;4.47;;;2.78;;
41233;SDS011;26968;42.686;23.352;2023-03-01T04:33:59;4.00;;;2.80;;
41233;SDS011;26968;42.686;23.352;2023-03-01T04:36:26;6.10;;;2.90;;
41233;SDS011;26968;42.686;23.352;2023-03-01T04:38:53;6.57;;;2.92;;
41233;SDS011;26968;42.686;23.352;2023-03-01T04:41:20;6.75;;;2.75;;
41233;SDS011;26968;42.686;23.352;2023-03-01T04:43:47;7.43;;;2.72;;
41233;SDS011;26968;42.686;23.352;2023-03-01T04:46:14;3.95;;;2.40;;
41233;SDS011;26968;42.686;23.352;2023-03-01T04:48:42;5.22;;;2.72;;
41233;SDS011;26968;42.686;23.352;2023-03-01T04:51:09;4.38;;;2.38;;
41233;SDS011;26968;42.686;23.352;2023-03-01T04:53:38;4.60;;;2.65;;
41233;SDS011;26968;42.686;23.352;2023-03-01T04:56:04;6.45;;;3.10;;
41233;SDS011;26968;42.686;23.352;2023-03-01T04:58:30;5.70;;;3.20;;
41233;SDS011;26968;42.686;23.352;2023-03-01T05:00:56;4.75;;;3.47;;
41233;SDS011;26968;42.686;23.352;2023-03-01T05:03:21;4.60;;;3.30;;
41233;SDS011;26968;42.686;23.352;2023-03-01T05:05:47;5.22;;;3.42;;
41233;SDS011;26968;42.686;23.352;2023-03-01T05:08:14;5.13;;;3.20;;
41233;SDS011;26968;42.686;23.352;2023-03-01T05:10:44;4.68;;;3.58;;
41233;SDS011;26968;42.686;23.352;2023-03-01T05:13:12;5.65;;;4.32;;
41233;SDS011;26968;42.686;23.352;2023-03-01T05:15:46;6.25;;;4.20;;
41233;SDS011;26968;42.686;23.352;2023-03-01T05:18:25;13.15;;;4.60;;
41233;SDS011;26968;42.686;23.352;2023-03-01T05:20:52;11.93;;;5.03;;
41233;SDS011;26968;42.686;23.352;2023-03-01T05:23:21;10.07;;;6.18;;
41233;SDS011;26968;42.686;23.352;2023-03-01T05:25:47;12.13;;;6.15;;
41233;SDS011;26968;42.686;23.352;2023-03-01T05:28:13;13.07;;;6.35;;
41233;SDS011;26968;42.686;23.352;2023-03-01T05:30:39;12.75;;;7.80;;
41233;SDS011;26968;42.686;23.352;2023-03-01T05:33:05;13.13;;;7.80;;
41233;SDS011;26968;42.686;23.352;2023-03-01T05:35:35;12.23;;;5.85;;
41233;SDS011;26968;42.686;23.352;2023-03-01T05:38:01;14.18;;;5.50;;
41233;SDS011;26968;42.686;23.352;2023-03-01T05:40:27;10.98;;;6.25;;
41233;SDS011;26968;42.686;23.352;2023-03-01T05:42:54;14.23;;;5.32;;
41233;SDS011;26968;42.686;23.352;2023-03-01T05:45:22;8.30;;;5.10;;
41233;SDS011;26968;42.686;23.352;2023-03-01T05:47:49;6.72;;;4.45;;
41233;SDS011;26968;42.686;23.352;2023-03-01T05:50:26;10.90;;;5.47;;
41233;SDS011;26968;42.686;23.352;2023-03-01T05:53:04;10.88;;;5.13;;
41233;SDS011;26968;42.686;23.352;2023-03-01T05:55:40;8.48;;;5.30;;
41233;SDS011;26968;42.686;23.352;2023-03-01T05:58:08;8.38;;;5.45;;
41233;SDS011;26968;42.686;23.352;2023-03-01T06:00:42;8.30;;;5.40;;
41233;SDS011;26968;42.686;23.352;2023-03-01T06:03:09;8.18;;;5.18;;
41233;SDS011;26968;42.686;23.352;2023-03-01T06:05:37;9.80;;;5.03;;
41233;SDS011;26968;42.686;23.352;2023-03-01T06:08:05;7.78;;;4.80;;
41233;SDS011;26968;42.686;23.352;2023-03-01T06:10:31;10.02;;;4.82;;
41233;SDS011;26968;42.686;23.352;2023-03-01T06:12:56;20.17;;;4.80;;
41233;SDS011;26968;42.686;23.352;2023-03-01T06:15:23;8.25;;;4.22;;
41233;SDS011;26968;42.686;23.352;2023-03-01T06:17:49;8.75;;;4.07;;
41233;SDS011;26968;42.686;23.352;2023-03-01T06:20:19;8.48;;;4.32;;
41233;SDS011;26968;42.686;23.352;2023-03-01T06:22:47;5.25;;;3.33;;
41233;SDS011;26968;42.686;23.352;2023-03-01T06:25:15;11.48;;;4.15;;
41233;SDS011;26968;42.686;23.352;2023-03-01T06:27:48;5.63;;;3.70;;
41233;SDS011;26968;42.686;23.352;2023-03-01T06:30:18;10.25;;;4.13;;
41233;SDS011;26968;42.686;23.352;2023-03-01T06:32:48;12.63;;;3.97;;
41233;SDS011;26968;42.686;23.352;2023-03-01T06:35:16;6.25;;;4.13;;
41233;SDS011;26968;42.686;23.352;2023-03-01T06:37:44;9.18;;;3.65;;
41233;SDS011;26968;42.686;23.352;2023-03-01T06:40:10;6.43;;;3.45;;
41233;SDS011;26968;42.686;23.352;2023-03-01T06:42:38;9.38;;;3.25;;
41233;SDS011;26968;42.686;23.352;2023-03-01T06:45:05;7.93;;;3.08;;
41233;SDS011;26968;42.686;23.352;2023-03-01T06:47:32;8.43;;;3.65;;
41233;SDS011;26968;42.686;23.352;2023-03-01T06:49:59;10.95;;;4.38;;
41233;SDS011;26968;42.686;23.352;2023-03-01T06:52:27;7.13;;;4.38;;
41233;SDS011;26968;42.686;23.352;2023-03-01T06:54:52;9.52;;;4.63;;
41233;SDS011;26968;42.686;23.352;2023-03-01T06:57:18;9.00;;;4.00;;
41233;SDS011;26968;42.686;23.352;2023-03-01T06:59:43;10.45;;;3.65;;
41233;SDS011;26968;42.686;23.352;2023-03-01T07:02:12;13.05;;;4.35;;
41233;SDS011;26968;42.686;23.352;2023-03-01T07:04:40;9.50;;;4.13;;
41233;SDS011;26968;42.686;23.352;2023-03-01T07:07:05;10.88;;;3.22;;
41233;SDS011;26968;42.686;23.352;2023-03-01T07:09:31;6.95;;;3.13;;
41233;SDS011;26968;42.686;23.352;2023-03-01T07:11:59;13.20;;;3.50;;
41233;SDS011;26968;42.686;23.352;2023-03-01T07:14:26;8.05;;;3.60;;
41233;SDS011;26968;42.686;23.352;2023-03-01T07:16:54;5.13;;;2.80;;
41233;SDS011;26968;42.686;23.352;2023-03-01T07:19:23;4.38;;;2.85;;
41233;SDS011;26968;42.686;23.352;2023-03-01T07:21:48;7.93;;;3.20;;
41233;SDS011;26968;42.686;23.352;2023-03-01T07:24:16;7.45;;;3.63;;
41233;SDS011;26968;42.686;23.352;2023-03-01T07:26:42;7.07;;;3.50;;
41233;SDS011;26968;42.686;23.352;2023-03-01T07:29:07;4.75;;;2.88;;
41233;SDS011;26968;42.686;23.352;2023-03-01T07:31:34;12.18;;;3.60;;
41233;SDS011;26968;42.686;23.352;2023-03-01T07:34:00;5.75;;;3.53;;
41233;SDS011;26968;42.686;23.352;2023-03-01T07:36:25;10.50;;;3.35;;
41233;SDS011;26968;42.686;23.352;2023-03-01T07:38:51;11.00;;;4.72;;
41233;SDS011;26968;42.686;23.352;2023-03-01T07:41:17;13.57;;;4.90;;
41233;SDS011;26968;42.686;23.352;2023-03-01T07:43:43;3.83;;;2.88;;
41233;SDS011;26968;42.686;23.352;2023-03-01T07:46:08;5.60;;;2.92;;
41233;SDS011;26968;42.686;23.352;2023-03-01T07:48:33;8.02;;;2.83;;
41233;SDS011;26968;42.686;23.352;2023-03-01T07:51:02;5.43;;;3.10;;
41233;SDS011;26968;42.686;23.352;2023-03-01T07:53:31;9.07;;;3.67;;
41233;SDS011;26968;42.686;23.352;2023-03-01T07:56:05;7.65;;;3.20;;
41233;SDS011;26968;42.686;23.352;2023-03-01T07:58:36;8.98;;;3.30;;
41233;SDS011;26968;42.686;23.352;2023-03-01T08:01:02;4.13;;;2.75;;
41233;SDS011;26968;42.686;23.352;2023-03-01T08:03:30;6.18;;;3.13;;
41233;SDS011;26968;42.686;23.352;2023-03-01T08:05:55;13.90;;;3.42;;
41233;SDS011;26968;42.686;23.352;2023-03-01T08:08:21;6.88;;;3.25;;
41233;SDS011;26968;42.686;23.352;2023-03-01T08:10:46;18.40;;;4.60;;
41233;SDS011;26968;42.686;23.352;2023-03-01T08:13:12;6.55;;;3.13;;
41233;SDS011;26968;42.686;23.352;2023-03-01T08:15:37;8.38;;;2.88;;
41233;SDS011;26968;42.686;23.352;2023-03-01T08:18:02;7.68;;;2.40;;
41233;SDS011;26968;42.686;23.352;2023-03-01T08:20:28;12.05;;;2.90;;
41233;SDS011;26968;42.686;23.352;2023-03-01T08:22:53;16.67;;;5.28;;
41233;SDS011;26968;42.686;23.352;2023-03-01T08:25:19;6.32;;;3.28;;
41233;SDS011;26968;42.686;23.352;2023-03-01T08:27:46;7.47;;;2.75;;
41233;SDS011;26968;42.686;23.352;2023-03-01T08:30:12;10.32;;;3.50;;
41233;SDS011;26968;42.686;23.352;2023-03-01T08:32:38;6.32;;;3.08;;
41233;SDS011;26968;42.686;23.352;2023-03-01T08:35:04;5.18;;;3.00;;
41233;SDS011;26968;42.686;23.352;2023-03-01T08:37:33;5.97;;;2.50;;
41233;SDS011;26968;42.686;23.352;2023-03-01T08:39:59;7.45;;;2.88;;
41233;SDS011;26968;42.686;23.352;2023-03-01T08:42:25;6.30;;;3.63;;
41233;SDS011;26968;42.686;23.352;2023-03-01T08:44:51;7.05;;;3.17;;
41233;SDS011;26968;42.686;23.352;2023-03-01T08:47:17;5.60;;;2.95;;
41233;SDS011;26968;42.686;23.352;2023-03-01T08:49:42;5.97;;;3.50;;
41233;SDS011;26968;42.686;23.352;2023-03-01T08:52:07;10.90;;;3.20;;
41233;SDS011;26968;42.686;23.352;2023-03-01T08:54:33;27.15;;;8.68;;
41233;SDS011;26968;42.686;23.352;2023-03-01T08:57:03;15.27;;;5.55;;
41233;SDS011;26968;42.686;23.352;2023-03-01T08:59:28;8.23;;;4.68;;
41233;SDS011;26968;42.686;23.352;2023-03-01T09:02:00;7.30;;;3.13;;
41233;SDS011;26968;42.686;23.352;2023-03-01T09:04:25;10.32;;;3.72;;
41233;SDS011;26968;42.686;23.352;2023-03-01T09:06:51;7.43;;;3.22;;
41233;SDS011;26968;42.686;23.352;2023-03-01T09:09:17;3.78;;;2.75;;
41233;SDS011;26968;42.686;23.352;2023-03-01T09:11:43;5.47;;;3.13;;
41233;SDS011;26968;42.686;23.352;2023-03-01T09:14:11;4.35;;;2.40;;
41233;SDS011;26968;42.686;23.352;2023-03-01T09:16:39;3.53;;;2.45;;
41233;SDS011;26968;42.686;23.352;2023-03-01T09:19:05;9.55;;;2.70;;
41233;SDS011;26968;42.686;23.352;2023-03-01T09:21:31;7.18;;;2.72;;
41233;SDS011;26968;42.686;23.352;2023-03-01T09:23:57;3.97;;;2.33;;
41233;SDS011;26968;42.686;23.352;2023-03-01T09:26:23;6.10;;;2.22;;
41233;SDS011;26968;42.686;23.352;2023-03-01T09:28:52;8.82;;;3.33;;
41233;SDS011;26968;42.686;23.352;2023-03-01T09:31:20;4.15;;;2.38;;
41233;SDS011;26968;42.686;23.352;2023-03-01T09:33:48;8.43;;;2.60;;
41233;SDS011;26968;42.686;23.352;2023-03-01T09:36:16;6.18;;;3.53;;
41233;SDS011;26968;42.686;23.352;2023-03-01T09:38:45;11.98;;;3.00;;
41233;SDS011;26968;42.686;23.352;2023-03-01T09:47:17;9.48;;;3.40;;
41233;SDS011;26968;42.686;23.352;2023-03-01T09:49:48;6.95;;;3.40;;
41233;SDS011;26968;42.686;23.352;2023-03-01T09:55:15;8.48;;;2.30;;
41233;SDS011;26968;42.686;23.352;2023-03-01T10:00:38;4.57;;;2.22;;
41233;SDS011;26968;42.686;23.352;2023-03-01T10:03:25;4.82;;;2.42;;
41233;SDS011;26968;42.686;23.352;2023-03-01T10:08:38;9.80;;;3.03;;
41233;SDS011;26968;42.686;23.352;2023-03-01T10:11:17;17.67;;;5.25;;
41233;SDS011;26968;42.686;23.352;2023-03-01T10:16:28;11.57;;;3.60;;
41233;SDS011;26968;42.686;23.352;2023-03-01T10:19:21;3.47;;;1.90;;
41233;SDS011;26968;42.686;23.352;2023-03-01T10:21:57;10.68;;;2.80;;
41233;SDS011;26968;42.686;23.352;2023-03-01T10:24:29;5.90;;;2.42;;
41233;SDS011;26968;42.686;23.352;2023-03-01T10:27:04;6.25;;;2.88;;
41233;SDS011;26968;42.686;23.352;2023-03-01T10:29:39;3.88;;;2.22;;
41233;SDS011;26968;42.686;23.352;2023-03-01T10:32:13;6.38;;;2.33;;
41233;SDS011;26968;42.686;23.352;2023-03-01T10:34:39;3.95;;;1.90;;
41233;SDS011;26968;42.686;23.352;2023-03-01T10:39:56;5.13;;;2.13;;
41233;SDS011;26968;42.686;23.352;2023-03-01T10:42:46;6.82;;;2.40;;
41233;SDS011;26968;42.686;23.352;2023-03-01T10:45:19;5.05;;;2.20;;
41233;SDS011;26968;42.686;23.352;2023-03-01T10:47:53;5.50;;;2.78;;
41233;SDS011;26968;42.686;23.352;2023-03-01T10:50:46;4.20;;;2.33;;
41233;SDS011;26968;42.686;23.352;2023-03-01T10:53:29;2.92;;;1.80;;
41233;SDS011;26968;42.686;23.352;2023-03-01T10:56:14;2.50;;;1.63;;
41233;SDS011;26968;42.686;23.352;2023-03-01T10:58:57;6.93;;;2.25;;
41233;SDS011;26968;42.686;23.352;2023-03-01T11:06:40;7.97;;;2.00;;
41233;SDS011;26968;42.686;23.352;2023-03-01T11:09:23;6.00;;;1.80;;
41233;SDS011;26968;42.686;23.352;2023-03-01T11:11:52;4.15;;;1.67;;
41233;SDS011;26968;42.686;23.352;2023-03-01T11:14:27;2.90;;;1.50;;
41233;SDS011;26968;42.686;23.352;2023-03-01T11:20:35;4.68;;;1.80;;
41233;SDS011;26968;42.686;23.352;2023-03-01T11:28:41;5.22;;;2.25;;
41233;SDS011;26968;42.686;23.352;2023-03-01T11:31:10;3.30;;;1.98;;
41233;SDS011;26968;42.686;23.352;2023-03-01T11:33:53;5.93;;;1.50;;
41233;SDS011;26968;42.686;23.352;2023-03-01T11:42:42;5.45;;;2.35;;
41233;SDS011;26968;42.686;23.352;2023-03-01T11:50:41;5.50;;;2.10;;
41233;SDS011;26968;42.686;23.352;2023-03-01T11:53:32;3.58;;;2.20;;
41233;SDS011;26968;42.686;23.352;2023-03-01T11:59:02;6.85;;;3.70;;
41233;SDS011;26968;42.686;23.352;2023-03-01T12:04:43;16.55;;;2.60;;
41233;SDS011;26968;42.686;23.352;2023-03-01T12:18:19;20.00;;;4.95;;
41233;SDS011;26968;42.686;23.352;2023-03-01T12:23:45;9.98;;;4.15;;
41233;SDS011;26968;42.686;23.352;2023-03-01T12:32:47;29.23;;;5.28;;
41233;SDS011;26968;42.686;23.352;2023-03-01T12:35:13;11.20;;;4.53;;
41233;SDS011;26968;42.686;23.352;2023-03-01T12:43:27;12.52;;;4.30;;
41233;SDS011;26968;42.686;23.352;2023-03-01T12:48:49;12.63;;;3.35;;
41233;SDS011;26968;42.686;23.352;2023-03-01T12:51:17;4.32;;;3.33;;
41233;SDS011;26968;42.686;23.352;2023-03-01T12:53:50;7.40;;;2.92;;
41233;SDS011;26968;42.686;23.352;2023-03-01T12:56:19;4.55;;;2.80;;
41233;SDS011;26968;42.686;23.352;2023-03-01T12:58:51;4.97;;;3.10;;
41233;SDS011;26968;42.686;23.352;2023-03-01T13:07:04;5.38;;;2.92;;
41233;SDS011;26968;42.686;23.352;2023-03-01T13:18:04;7.50;;;2.80;;
41233;SDS011;26968;42.686;23.352;2023-03-01T13:28:42;6.88;;;2.78;;
41233;SDS011;26968;42.686;23.352;2023-03-01T13:36:39;4.60;;;2.60;;
41233;SDS011;26968;42.686;23.352;2023-03-01T13:39:38;4.57;;;2.47;;
41233;SDS011;26968;42.686;23.352;2023-03-01T13:42:25;9.35;;;3.25;;
41233;SDS011;26968;42.686;23.352;2023-03-01T13:44:55;10.32;;;3.10;;
41233;SDS011;26968;42.686;23.352;2023-03-01T13:47:22;6.88;;;3.00;;
41233;SDS011;26968;42.686;23.352;2023-03-01T13:49:56;6.95;;;2.80;;
41233;SDS011;26968;42.686;23.352;2023-03-01T13:55:55;6.03;;;3.05;;
41233;SDS011;26968;42.686;23.352;2023-03-01T13:58:04;6.60;;;2.63;;
41233;SDS011;26968;42.686;23.352;2023-03-01T14:00:43;6.88;;;3.53;;
41233;SDS011;26968;42.686;23.352;2023-03-01T14:03:10;8.40;;;3.88;;
41233;SDS011;26968;42.686;23.352;2023-03-01T14:05:36;6.63;;;3.00;;
41233;SDS011;26968;42.686;23.352;2023-03-01T14:08:04;12.13;;;3.55;;
41233;SDS011;26968;42.686;23.352;2023-03-01T14:10:36;6.18;;;3.10;;
41233;SDS011;26968;42.686;23.352;2023-03-01T14:13:31;8.10;;;3.20;;
41233;SDS011;26968;42.686;23.352;2023-03-01T14:16:58;7.82;;;2.95;;
41233;SDS011;26968;42.686;23.352;2023-03-01T14:19:29;5.90;;;2.45;;
41233;SDS011;26968;42.686;23.352;2023-03-01T14:24:44;9.27;;;3.17;;
41233;SDS011;26968;42.686;23.352;2023-03-01T14:27:14;8.30;;;2.92;;
41233;SDS011;26968;42.686;23.352;2023-03-01T14:29:42;14.02;;;3.95;;
41233;SDS011;26968;42.686;23.352;2023-03-01T14:32:10;8.13;;;3.70;;
41233;SDS011;26968;42.686;23.352;2023-03-01T14:35:19;7.97;;;2.70;;
41233;SDS011;26968;42.686;23.352;2023-03-01T14:37:47;5.47;;;3.10;;
41233;SDS011;26968;42.686;23.352;2023-03-01T14:40:31;8.23;;;3.22;;
41233;SDS011;26968;42.686;23.352;2023-03-01T14:43:00;10.48;;;3.17;;
41233;SDS011;26968;42.686;23.352;2023-03-01T14:45:33;7.18;;;3.25;;
41233;SDS011;26968;42.686;23.352;2023-03-01T14:47:59;7.75;;;3.40;;
41233;SDS011;26968;42.686;23.352;2023-03-01T14:50:31;9.18;;;2.97;;
41233;SDS011;26968;42.686;23.352;2023-03-01T14:53:03;7.18;;;3.30;;
41233;SDS011;26968;42.686;23.352;2023-03-01T14:55:50;5.82;;;3.22;;
41233;SDS011;26968;42.686;23.352;2023-03-01T14:58:22;9.27;;;3.17;;
41233;SDS011;26968;42.686;23.352;2023-03-01T15:00:53;5.82;;;3.17;;
41233;SDS011;26968;42.686;23.352;2023-03-01T15:03:26;9.45;;;3.42;;
41233;SDS011;26968;42.686;23.352;2023-03-01T15:05:57;9.05;;;3.30;;
41233;SDS011;26968;42.686;23.352;2023-03-01T15:08:25;13.60;;;3.60;;
41233;SDS011;26968;42.686;23.352;2023-03-01T15:13:39;5.97;;;3.10;;
41233;SDS011;26968;42.686;23.352;2023-03-01T15:16:06;5.30;;;3.40;;
41233;SDS011;26968;42.686;23.352;2023-03-01T15:18:35;8.23;;;3.13;;
41233;SDS011;26968;42.686;23.352;2023-03-01T15:21:09;7.68;;;3.15;;
41233;SDS011;26968;42.686;23.352;2023-03-01T15:23:40;11.13;;;3.65;;
41233;SDS011;26968;42.686;23.352;2023-03-01T15:26:20;9.13;;;3.90;;
41233;SDS011;26968;42.686;23.352;2023-03-01T15:28:50;9.65;;;3.47;;
41233;SDS011;26968;42.686;23.352;2023-03-01T15:31:21;7.47;;;4.32;;
41233;SDS011;26968;42.686;23.352;2023-03-01T15:33:49;8.85;;;3.40;;
41233;SDS011;26968;42.686;23.352;2023-03-01T15:36:32;7.55;;;3.13;;
41233;SDS011;26968;42.686;23.352;2023-03-01T15:38:58;8.57;;;3.78;;
41233;SDS011;26968;42.686;23.352;2023-03-01T15:41:31;8.75;;;3.15;;
41233;SDS011;26968;42.686;23.352;2023-03-01T15:44:48;13.55;;;4.60;;
41233;SDS011;26968;42.686;23.352;2023-03-01T15:46:53;13.23;;;4.47;;
41233;SDS011;26968;42.686;23.352;2023-03-01T15:51:57;8.85;;;3.70;;
41233;SDS011;26968;42.686;23.352;2023-03-01T15:54:24;9.95;;;3.47;;
41233;SDS011;26968;42.686;23.352;2023-03-01T15:56:51;7.70;;;4.18;;
41233;SDS011;26968;42.686;23.352;2023-03-01T15:59:19;11.02;;;3.85;;
41233;SDS011;26968;42.686;23.352;2023-03-01T16:01:45;11.10;;;3.20;;
41233;SDS011;26968;42.686;23.352;2023-03-01T16:04:14;8.93;;;4.07;;
41233;SDS011;26968;42.686;23.352;2023-03-01T16:06:54;8.93;;;3.65;;
41233;SDS011;26968;42.686;23.352;2023-03-01T16:09:24;13.07;;;4.22;;
41233;SDS011;26968;42.686;23.352;2023-03-01T16:11:52;12.85;;;3.63;;
41233;SDS011;26968;42.686;23.352;2023-03-01T16:14:18;6.65;;;3.33;;
41233;SDS011;26968;42.686;23.352;2023-03-01T16:16:44;6.70;;;3.50;;
41233;SDS011;26968;42.686;23.352;2023-03-01T16:19:11;9.32;;;3.90;;
41233;SDS011;26968;42.686;23.352;2023-03-01T16:21:36;9.88;;;4.55;;
41233;SDS011;26968;42.686;23.352;2023-03-01T16:24:04;10.55;;;3.88;;
41233;SDS011;26968;42.686;23.352;2023-03-01T16:26:30;7.38;;;3.70;;
41233;SDS011;26968;42.686;23.352;2023-03-01T16:28:56;7.05;;;4.20;;
41233;SDS011;26968;42.686;23.352;2023-03-01T16:31:22;9.75;;;4.22;;
41233;SDS011;26968;42.686;23.352;2023-03-01T16:33:49;11.68;;;4.45;;
41233;SDS011;26968;42.686;23.352;2023-03-01T16:36:16;13.50;;;4.35;;
41233;SDS011;26968;42.686;23.352;2023-03-01T16:38:44;16.00;;;5.03;;
41233;SDS011;26968;42.686;23.352;2023-03-01T16:41:17;18.10;;;5.57;;
41233;SDS011;26968;42.686;23.352;2023-03-01T16:43:45;14.10;;;5.13;;
41233;SDS011;26968;42.686;23.352;2023-03-01T16:46:13;10.75;;;5.15;;
41233;SDS011;26968;42.686;23.352;2023-03-01T16:48:40;11.43;;;5.45;;
41233;SDS011;26968;42.686;23.352;2023-03-01T16:51:07;10.07;;;5.05;;
41233;SDS011;26968;42.686;23.352;2023-03-01T16:53:34;27.77;;;6.95;;
41233;SDS011;26968;42.686;23.352;2023-03-01T16:56:04;21.88;;;7.80;;